Time;durP1;ratioP1;P1;durP2;ratioP2;P2;SDS_P1;SDS_P2;PMS_P1;PMS_P2;Temp;Humidity;BMP_temperature;BMP_pressure;BME280_temperature;BME280_humidity;BME280_pressure;Samples;Min_cycle;Max_cycle;Signal;HPM_P1;HPM_P2
2023/10/07 00:02:12;;;;;;;1999.90;999.90;;;17.70;99.90;;;;;;4976337;28;20046;-72
2023/10/07 00:04:42;;;;;;;1999.90;999.90;;;17.70;99.90;;;;;;4972050;28;20410;-71
2023/10/07 00:07:10;;;;;;;1999.90;999.90;;;17.70;99.90;;;;;;4975466;28;20038;-71
2023/10/07 00:09:45;;;;;;;1999.90;999.90;;;17.70;99.90;;;;;;4972022;28;20050;-72
2023/10/07 00:12:16;;;;;;;1999.90;999.90;;;17.70;99.90;;;;;;4971271;28;20045;-72
2023/10/07 00:14:43;;;;;;;1999.90;999.90;;;17.70;99.90;;;;;;4969815;28;20134;-71
2023/10/07 00:17:16;;;;;;;1999.90;999.90;;;17.70;99.90;;;;;;4951622;28;20433;-71
2023/10/07 00:19:46;;;;;;;1999.90;999.90;;;17.70;99.90;;;;;;4966965;28;20843;-72
2023/10/07 00:22:19;;;;;;;1999.90;999.90;;;17.70;99.90;;;;;;4970983;28;20049;-72
2023/10/07 00:24:48;;;;;;;1999.90;999.90;;;17.70;99.90;;;;;;4974482;28;20053;-72
2023/10/07 00:27:26;;;;;;;1999.90;999.90;;;17.70;99.90;;;;;;4974378;28;20449;-72
2023/10/07 00:29:58;;;;;;;1999.90;999.90;;;17.70;99.90;;;;;;4975713;28;20074;-72
2023/10/07 00:32:29;;;;;;;1999.90;999.90;;;17.70;99.90;;;;;;4980189;28;20050;-72
2023/10/07 00:34:59;;;;;;;1999.90;999.90;;;17.70;99.90;;;;;;4972073;28;20049;-72
2023/10/07 00:37:25;;;;;;;1999.90;999.90;;;17.70;99.90;;;;;;4978914;28;20046;-72
2023/10/07 00:39:53;;;;;;;1999.90;999.90;;;17.70;99.90;;;;;;4981893;28;20164;-72
2023/10/07 00:42:19;;;;;;;1999.90;999.90;;;17.60;99.90;;;;;;4983815;28;20051;-72
2023/10/07 00:44:47;;;;;;;1999.90;999.90;;;17.60;99.90;;;;;;4989293;28;20038;-72
2023/10/07 00:47:13;;;;;;;1999.90;999.90;;;17.60;99.90;;;;;;4988359;28;20053;-72
2023/10/07 00:49:50;;;;;;;1999.90;999.90;;;17.60;99.90;;;;;;4978711;28;20490;-72
2023/10/07 00:52:41;;;;;;;1999.90;999.90;;;17.50;99.90;;;;;;5013623;28;20050;-71
2023/10/07 00:55:16;;;;;;;1999.90;999.90;;;17.50;99.90;;;;;;4980587;28;20054;-71
2023/10/07 00:57:47;;;;;;;1999.90;999.90;;;17.40;99.90;;;;;;5016116;28;20042;-71
2023/10/07 01:02:46;;;;;;;1999.90;999.90;;;17.30;99.90;;;;;;4973646;28;20039;-71
2023/10/07 01:05:21;;;;;;;1999.90;999.90;;;17.20;99.90;;;;;;4993032;28;20113;-71
2023/10/07 01:07:53;;;;;;;1999.90;999.90;;;17.20;99.90;;;;;;5020199;28;20437;-71
2023/10/07 01:10:24;;;;;;;1999.90;999.90;;;17.10;99.90;;;;;;4980643;28;20043;-73
2023/10/07 01:12:51;;;;;;;1999.90;999.90;;;17.10;99.90;;;;;;5003884;28;20046;-71
2023/10/07 01:15:22;;;;;;;1999.90;999.90;;;17.10;99.90;;;;;;4975542;28;20045;-72
2023/10/07 01:18:04;;;;;;;1999.90;999.90;;;17.00;99.90;;;;;;4978238;28;20459;-72
2023/10/07 01:21:00;;;;;;;1999.90;999.90;;;17.00;99.90;;;;;;4980453;28;20081;-72
2023/10/07 01:23:33;;;;;;;1999.90;999.90;;;17.10;99.90;;;;;;4988605;28;20401;-72
2023/10/07 01:26:07;;;;;;;1999.90;999.90;;;17.10;99.90;;;;;;4973078;28;20038;-71
2023/10/07 01:28:40;;;;;;;1999.90;999.90;;;17.10;99.90;;;;;;4982390;28;20046;-72
2023/10/07 01:31:11;;;;;;;1999.90;999.90;;;17.20;99.90;;;;;;4981938;28;20095;-72
2023/10/07 01:33:39;;;;;;;1999.90;999.90;;;17.20;99.90;;;;;;4984865;28;20532;-71
2023/10/07 01:36:24;;;;;;;1999.90;999.90;;;17.20;99.90;;;;;;4983351;28;20035;-72
2023/10/07 01:38:53;;;;;;;1999.90;999.90;;;17.20;99.90;;;;;;4987006;28;20103;-72
2023/10/07 01:41:27;;;;;;;1999.90;999.90;;;17.30;99.90;;;;;;4967496;28;20076;-72
2023/10/07 01:43:59;;;;;;;1999.90;999.90;;;17.40;99.90;;;;;;4986688;28;20450;-72
2023/10/07 01:46:29;;;;;;;1999.90;999.90;;;17.30;99.90;;;;;;4977182;28;20065;-71
2023/10/07 01:48:57;;;;;;;1999.90;999.90;;;17.30;99.90;;;;;;4986484;28;20091;-72
2023/10/07 01:51:26;;;;;;;1999.90;999.90;;;17.40;99.90;;;;;;4988476;28;20070;-72
2023/10/07 01:54:04;;;;;;;1999.90;999.90;;;17.50;99.90;;;;;;4985764;28;20060;-72
2023/10/07 01:56:33;;;;;;;1999.90;999.90;;;17.50;99.90;;;;;;4977592;28;20050;-72
2023/10/07 01:59:09;;;;;;;1999.90;999.90;;;17.50;99.90;;;;;;4987105;28;20131;-72
2023/10/07 02:01:35;;;;;;;1999.90;999.90;;;17.50;99.90;;;;;;4976276;28;20052;-72
2023/10/07 02:04:06;;;;;;;1999.90;999.90;;;17.60;99.90;;;;;;4983268;28;20046;-72
2023/10/07 02:06:42;;;;;;;1999.90;999.90;;;17.60;99.90;;;;;;4978753;28;20130;-71
2023/10/07 02:09:08;;;;;;;1999.90;999.90;;;17.60;99.90;;;;;;4983522;28;20046;-71
2023/10/07 02:11:36;;;;;;;1999.90;999.90;;;17.60;99.90;;;;;;4980923;28;20412;-72
2023/10/07 02:14:02;;;;;;;1999.90;999.90;;;17.70;99.90;;;;;;4986009;28;20046;-72
2023/10/07 02:16:28;;;;;;;1999.90;999.90;;;17.80;99.90;;;;;;4985809;28;20042;-72
2023/10/07 02:18:53;;;;;;;1999.90;999.90;;;17.80;99.90;;;;;;5001018;28;20092;-72
2023/10/07 02:21:23;;;;;;;1999.90;999.90;;;17.80;99.90;;;;;;4976072;28;20596;-72
2023/10/07 02:23:49;;;;;;;1999.90;999.90;;;17.70;99.90;;;;;;4973565;28;20074;-72
2023/10/07 02:26:21;;;;;;;1999.90;999.90;;;17.80;99.90;;;;;;4974040;28;20047;-72
2023/10/07 02:28:52;;;;;;;1999.90;999.90;;;17.80;99.90;;;;;;4976029;28;20525;-71
2023/10/07 02:31:23;;;;;;;1999.90;999.90;;;17.70;99.90;;;;;;4976885;28;20068;-72
2023/10/07 02:33:57;;;;;;;1999.90;999.90;;;17.80;99.90;;;;;;4976514;28;20058;-71
2023/10/07 02:36:31;;;;;;;1999.90;999.90;;;17.80;99.90;;;;;;4972262;28;20050;-71
2023/10/07 02:39:18;;;;;;;1999.90;999.90;;;17.80;99.90;;;;;;5000492;28;20042;-71
2023/10/07 02:41:46;;;;;;;1999.90;999.90;;;17.80;99.90;;;;;;4978685;28;20072;-72
2023/10/07 02:44:16;;;;;;;1999.90;999.90;;;17.80;99.90;;;;;;4974122;28;20038;-72
2023/10/07 02:46:42;;;;;;;1999.90;999.90;;;17.80;99.90;;;;;;4974278;28;20039;-71
2023/10/07 02:49:10;;;;;;;1999.90;999.90;;;17.80;99.90;;;;;;4974573;28;20056;-72
2023/10/07 02:51:46;;;;;;;1999.90;999.90;;;17.80;99.90;;;;;;4973441;28;20071;-72
2023/10/07 02:54:20;;;;;;;1999.90;999.90;;;17.80;99.90;;;;;;4979513;28;20087;-72
2023/10/07 02:57:03;;;;;;;;;;;17.80;99.90;;;;;;4974421;28;20097;-72
2023/10/07 02:59:32;;;;;;;1999.90;999.90;;;17.80;99.90;;;;;;4972313;28;20405;-71
2023/10/07 03:04:44;;;;;;;1999.90;999.90;;;17.80;99.90;;;;;;4975610;28;20422;-72
2023/10/07 03:07:16;;;;;;;1999.90;999.90;;;17.80;99.90;;;;;;4967993;28;20100;-72
2023/10/07 03:09:52;;;;;;;1999.90;999.90;;;17.80;99.90;;;;;;4974844;28;20184;-72
2023/10/07 03:12:27;;;;;;;1999.90;999.90;;;17.80;99.90;;;;;;4977762;28;20522;-72
2023/10/07 03:14:55;;;;;;;1999.90;999.90;;;17.80;99.90;;;;;;4985975;28;20141;-72
2023/10/07 03:17:21;;;;;;;1999.90;999.90;;;17.80;99.90;;;;;;4983511;28;20548;-72
2023/10/07 03:19:56;;;;;;;1999.90;999.90;;;17.80;99.90;;;;;;4983705;28;20043;-72
2023/10/07 03:22:28;;;;;;;1999.90;999.90;;;17.80;99.90;;;;;;4973323;28;20528;-72
2023/10/07 03:25:00;;;;;;;1999.90;999.90;;;17.80;99.90;;;;;;4985746;28;20038;-72
2023/10/07 03:27:39;;;;;;;1999.90;999.90;;;17.80;99.90;;;;;;4971605;28;20043;-72
2023/10/07 03:30:15;;;;;;;1999.90;999.90;;;17.80;99.90;;;;;;4980596;28;20057;-72
2023/10/07 03:32:54;;;;;;;1999.90;999.90;;;17.80;99.90;;;;;;4985541;28;20042;-73
2023/10/07 03:38:12;;;;;;;1999.90;999.90;;;17.80;99.90;;;;;;5003587;28;21020;-72
2023/10/07 03:40:38;;;;;;;1999.90;999.90;;;17.80;99.90;;;;;;4981287;28;20050;-72
2023/10/07 03:43:06;;;;;;;1999.90;999.90;;;17.80;99.90;;;;;;5014345;28;20151;-72
2023/10/07 03:45:32;;;;;;;1999.90;999.90;;;17.80;99.90;;;;;;4976692;28;20541;-72
2023/10/07 03:47:58;;;;;;;1999.90;999.90;;;17.80;99.90;;;;;;4983281;28;20039;-73
2023/10/07 03:50:34;;;;;;;1999.90;999.90;;;17.80;99.90;;;;;;5010431;28;20043;-72
2023/10/07 03:53:05;;;;;;;1999.90;999.90;;;17.80;99.90;;;;;;4985482;28;20057;-72
2023/10/07 03:55:31;;;;;;;1999.90;999.90;;;17.80;99.90;;;;;;4984615;28;20569;-72
2023/10/07 03:57:56;;;;;;;1999.90;999.90;;;17.80;99.90;;;;;;4983397;28;20046;-72
2023/10/07 04:00:28;;;;;;;1999.90;999.90;;;17.80;99.90;;;;;;5005449;28;20051;-72
2023/10/07 04:02:54;;;;;;;1999.90;999.90;;;17.70;99.90;;;;;;4983783;28;20039;-72
2023/10/07 04:05:31;;;;;;;1999.90;999.90;;;17.80;99.90;;;;;;4978013;28;20124;-72
2023/10/07 04:07:57;;;;;;;1999.90;999.90;;;17.80;99.90;;;;;;4986392;28;20047;-72
2023/10/07 04:10:23;;;;;;;1999.90;999.90;;;17.80;99.90;;;;;;4973501;28;20456;-72
2023/10/07 04:12:49;;;;;;;1999.90;999.90;;;17.80;99.90;;;;;;4984819;28;20050;-72
2023/10/07 04:15:17;;;;;;;1999.90;999.90;;;17.80;99.90;;;;;;4982674;28;20042;-72
2023/10/07 04:17:44;;;;;;;1999.90;999.90;;;17.80;99.90;;;;;;4984615;28;20050;-73
2023/10/07 04:20:58;;;;;;;1999.90;999.90;;;17.80;99.90;;;;;;4975146;28;20402;-72
2023/10/07 04:23:02;;;;;;;1999.90;999.90;;;17.70;99.90;;;;;;4989133;28;20050;-72
2023/10/07 04:25:30;;;;;;;1999.90;999.90;;;17.80;99.90;;;;;;4986452;28;20046;-72
2023/10/07 04:27:57;;;;;;;1999.90;999.90;;;17.70;99.90;;;;;;4984923;28;20046;-72
2023/10/07 04:30:38;;;;;;;1999.90;999.90;;;17.80;99.90;;;;;;4983969;28;20072;-72
2023/10/07 04:33:08;;;;;;;1999.90;999.90;;;17.80;99.90;;;;;;4979177;28;20380;-73
2023/10/07 04:35:34;;;;;;;1999.90;999.90;;;17.80;99.90;;;;;;4969966;28;20577;-72
2023/10/07 04:43:47;;;;;;;1999.90;999.90;;;17.70;99.90;;;;;;4985239;28;20053;-73
2023/10/07 04:46:22;;;;;;;;;;;17.70;99.90;;;;;;4980340;28;20046;-72
2023/10/07 04:48:56;;;;;;;;;;;17.70;99.90;;;;;;4983806;28;19918;-72
2023/10/07 04:53:59;;;;;;;1999.90;999.90;;;17.70;99.90;;;;;;4974963;28;20598;-71
2023/10/07 04:56:32;;;;;;;1999.90;999.90;;;17.70;99.90;;;;;;4979846;28;20074;-72
2023/10/07 04:59:00;;;;;;;1999.90;999.90;;;17.70;99.90;;;;;;4980197;28;20057;-72
2023/10/07 05:01:33;;;;;;;1999.90;999.90;;;17.70;99.90;;;;;;4986031;28;20449;-72
2023/10/07 05:04:04;;;;;;;1999.90;999.90;;;17.70;99.90;;;;;;4972714;28;20038;-72
2023/10/07 05:06:35;;;;;;;1999.90;999.90;;;17.70;99.90;;;;;;4979134;28;20129;-72
2023/10/07 05:09:09;;;;;;;1999.90;999.90;;;17.60;99.90;;;;;;4987808;28;20061;-72
2023/10/07 05:11:40;;;;;;;1999.90;999.90;;;17.70;99.90;;;;;;4975789;28;20113;-72
2023/10/07 05:14:10;;;;;;;1999.90;999.90;;;17.60;99.90;;;;;;4985776;28;20056;-72
2023/10/07 05:16:37;;;;;;;1999.90;999.90;;;17.60;99.90;;;;;;4987892;28;20069;-72
2023/10/07 05:19:03;;;;;;;1999.90;999.90;;;17.60;99.90;;;;;;4984086;28;20050;-72
2023/10/07 05:21:31;;;;;;;1999.90;999.90;;;17.70;99.90;;;;;;4986401;28;20046;-72
2023/10/07 05:24:02;;;;;;;1999.90;999.90;;;17.70;99.90;;;;;;4984167;28;20117;-72
2023/10/07 05:26:30;;;;;;;1999.90;999.90;;;17.60;99.90;;;;;;4982277;28;20050;-72
2023/10/07 05:29:01;;;;;;;1999.90;999.90;;;17.60;99.90;;;;;;4981889;28;20468;-72
2023/10/07 05:31:30;;;;;;;1999.90;999.90;;;17.60;99.90;;;;;;4986922;28;20080;-72
2023/10/07 05:33:59;;;;;;;1999.90;999.90;;;17.60;99.90;;;;;;4982681;28;20042;-72
2023/10/07 05:36:32;;;;;;;1999.90;999.90;;;17.60;99.90;;;;;;4982116;28;20063;-72
2023/10/07 05:39:00;;;;;;;1999.90;999.90;;;17.60;99.90;;;;;;4983311;28;20068;-72
2023/10/07 05:41:28;;;;;;;1999.90;999.90;;;17.50;99.90;;;;;;4988542;28;20072;-71
2023/10/07 05:43:54;;;;;;;1999.90;999.90;;;17.50;99.90;;;;;;4981883;28;20490;-72
2023/10/07 05:46:20;;;;;;;1999.90;999.90;;;17.60;99.90;;;;;;4976891;28;20051;-72
2023/10/07 05:48:47;;;;;;;1999.90;999.90;;;17.50;99.90;;;;;;4979021;28;20042;-72
2023/10/07 05:51:13;;;;;;;1999.90;999.90;;;17.50;99.90;;;;;;4978235;28;20061;-72
2023/10/07 05:53:41;;;;;;;1999.90;999.90;;;17.60;99.90;;;;;;4984456;28;20077;-72
2023/10/07 05:56:07;;;;;;;1999.90;999.90;;;17.50;99.90;;;;;;4988297;28;20046;-72
2023/10/07 05:58:37;;;;;;;1999.90;999.90;;;17.50;99.90;;;;;;4988261;28;20077;-73
2023/10/07 06:01:08;;;;;;;1999.90;999.90;;;17.50;99.90;;;;;;4982762;28;20043;-72
2023/10/07 06:03:34;;;;;;;1999.90;999.90;;;17.50;99.90;;;;;;4976797;28;20049;-72
2023/10/07 06:06:04;;;;;;;1999.90;999.90;;;17.40;99.90;;;;;;4982028;28;20038;-71
2023/10/07 06:08:30;;;;;;;1999.90;999.90;;;17.30;99.90;;;;;;4983544;28;20526;-71
2023/10/07 06:10:57;;;;;;;1999.90;999.90;;;17.30;99.90;;;;;;4985258;28;20057;-71
2023/10/07 06:13:26;;;;;;;1999.90;999.90;;;17.30;99.90;;;;;;4987649;28;20466;-71
2023/10/07 06:15:52;;;;;;;1999.90;999.90;;;17.30;99.90;;;;;;4984203;28;20164;-71
2023/10/07 06:18:18;;;;;;;1999.90;999.90;;;17.30;99.90;;;;;;4975812;28;20117;-72
2023/10/07 06:20:53;;;;;;;1999.90;999.90;;;17.20;99.90;;;;;;4979060;28;20042;-72
2023/10/07 06:23:20;;;;;;;1999.90;999.90;;;17.20;99.90;;;;;;4985463;28;20038;-71
2023/10/07 06:25:51;;;;;;;1999.90;999.90;;;17.30;99.90;;;;;;4982894;28;20439;-72
2023/10/07 06:31:14;;;;;;;1999.90;999.90;;;17.30;99.90;;;;;;4987635;28;20048;-72
2023/10/07 06:33:46;;;;;;;1999.90;999.90;;;17.30;99.90;;;;;;4974996;28;20092;-71
2023/10/07 06:36:14;;;;;;;1999.90;999.90;;;17.40;99.90;;;;;;4977524;28;20090;-72
2023/10/07 06:38:52;;;;;;;1999.90;999.90;;;17.40;99.90;;;;;;4979616;28;20050;-72
2023/10/07 06:41:21;;;;;;;1999.90;999.90;;;17.50;99.90;;;;;;4979275;28;20426;-71
2023/10/07 06:43:50;;;;;;;1999.90;999.90;;;17.40;99.90;;;;;;4989908;28;20039;-72
2023/10/07 06:46:20;;;;;;;1999.90;999.90;;;17.50;99.90;;;;;;4982079;28;20038;-71
2023/10/07 06:48:50;;;;;;;1999.90;999.90;;;17.50;99.90;;;;;;4979837;28;20093;-71
2023/10/07 06:51:16;;;;;;;1999.90;999.90;;;17.50;99.90;;;;;;4975772;28;20038;-72
2023/10/07 06:53:45;;;;;;;1999.90;999.90;;;17.40;99.90;;;;;;4972154;28;20468;-72
2023/10/07 06:56:20;;;;;;;1999.90;999.90;;;17.50;99.90;;;;;;4976687;28;20084;-72
2023/10/07 06:58:59;;;;;;;1999.90;999.90;;;17.50;99.90;;;;;;4972386;28;20047;-72
2023/10/07 07:04:10;;;;;;;1999.90;999.90;;;17.50;99.90;;;;;;4976938;28;20049;-72
2023/10/07 07:06:43;;;;;;;1999.90;999.90;;;17.50;99.90;;;;;;4975925;28;20148;-71
2023/10/07 07:11:57;;;;;;;1999.90;999.90;;;17.60;99.90;;;;;;4985679;28;20054;-71
2023/10/07 07:14:28;;;;;;;1999.90;999.90;;;17.60;99.90;;;;;;4983993;28;20089;-71
2023/10/07 07:16:57;;;;;;;1999.90;999.90;;;17.60;99.90;;;;;;4973877;28;20047;-71
2023/10/07 07:19:23;;;;;;;1999.90;999.90;;;17.60;99.90;;;;;;4962818;28;20055;-72
2023/10/07 07:21:50;;;;;;;1999.90;999.90;;;17.60;99.90;;;;;;4983637;28;20088;-72
2023/10/07 07:24:22;;;;;;;1999.90;999.90;;;17.60;99.90;;;;;;4968100;28;20461;-71
2023/10/07 07:26:52;;;;;;;1999.90;999.90;;;17.60;99.90;;;;;;4978685;28;20042;-72
2023/10/07 07:29:25;;;;;;;1999.90;999.90;;;17.70;99.90;;;;;;4982495;28;20046;-72
2023/10/07 07:31:50;;;;;;;1999.90;999.90;;;17.80;99.90;;;;;;4975951;28;20050;-72
2023/10/07 07:34:26;;;;;;;1999.90;999.90;;;17.90;99.90;;;;;;4976639;28;20493;-72
2023/10/07 07:37:04;;;;;;;1999.90;999.90;;;18.00;99.90;;;;;;4964887;28;20045;-72
2023/10/07 07:39:30;;;;;;;1999.90;999.90;;;18.00;99.90;;;;;;4986128;28;20046;-71
2023/10/07 07:42:15;;;;;;;1999.90;999.90;;;18.10;99.90;;;;;;4983071;28;20046;-72
2023/10/07 07:44:55;;;;;;;;;;;18.10;99.90;;;;;;4985069;28;20050;-73
2023/10/07 07:47:21;;;;;;;1999.90;999.90;;;18.20;99.90;;;;;;4985095;28;20393;-72
2023/10/07 07:49:48;;;;;;;1999.90;999.90;;;18.30;99.90;;;;;;4982448;28;20043;-72
2023/10/07 07:52:15;;;;;;;1999.90;999.90;;;18.30;99.90;;;;;;4973842;28;20070;-73
2023/10/07 07:54:44;;;;;;;1999.90;999.90;;;18.20;99.90;;;;;;4985639;28;20042;-72
2023/10/07 07:57:12;;;;;;;1999.90;999.90;;;18.30;99.90;;;;;;4976600;28;20062;-72
2023/10/07 07:59:38;;;;;;;1999.90;999.90;;;18.30;99.90;;;;;;4979034;28;20055;-73
2023/10/07 08:02:15;;;;;;;1999.90;999.90;;;18.30;99.90;;;;;;4980095;28;20038;-72
2023/10/07 08:04:46;;;;;;;1999.90;999.90;;;18.30;99.90;;;;;;4980631;28;20042;-72
2023/10/07 08:09:45;;;;;;;1999.90;999.90;;;18.40;99.90;;;;;;4978397;28;20485;-72
2023/10/07 08:12:18;;;;;;;1999.90;999.90;;;18.40;99.90;;;;;;4976364;28;20045;-72
2023/10/07 08:14:46;;;;;;;1999.90;999.90;;;18.40;99.90;;;;;;4980692;28;20049;-73
2023/10/07 08:17:15;;;;;;;1999.90;999.90;;;18.40;99.90;;;;;;4981142;28;20038;-72
2023/10/07 08:19:40;;;;;;;1999.90;999.90;;;18.40;99.90;;;;;;4980824;28;20051;-72
2023/10/07 08:22:16;;;;;;;1999.90;999.90;;;18.40;99.90;;;;;;4975824;28;20031;-72
2023/10/07 08:24:41;;;;;;;1999.90;999.90;;;18.40;99.90;;;;;;4975533;28;20128;-72
2023/10/07 08:27:43;;;;;;;1999.90;999.90;;;18.40;99.90;;;;;;4971945;28;20488;-72
2023/10/07 08:29:55;;;;;;;1999.90;999.90;;;18.80;99.90;;;;;;4972306;28;20049;-72
2023/10/07 08:32:35;;;;;;;1999.90;999.90;;;18.40;99.90;;;;;;4972497;28;20094;-73
2023/10/07 08:35:03;;;;;;;1999.90;999.90;;;18.40;99.90;;;;;;4977759;28;20099;-73
2023/10/07 08:37:32;;;;;;;1999.90;999.90;;;18.40;99.90;;;;;;4972160;28;20406;-72
2023/10/07 08:40:14;;;;;;;1999.90;999.90;;;18.40;99.90;;;;;;4971681;28;20086;-72
2023/10/07 08:42:45;;;;;;;1999.90;999.90;;;18.40;99.90;;;;;;4978359;28;20422;-73
2023/10/07 08:45:15;;;;;;;1999.90;999.90;;;18.50;99.90;;;;;;4973625;28;20051;-73
2023/10/07 08:47:49;;;;;;;1999.90;999.90;;;18.60;99.90;;;;;;4983606;28;20046;-73
2023/10/07 08:50:19;;;;;;;1999.90;999.90;;;18.60;99.90;;;;;;4972313;28;20776;-72
2023/10/07 08:52:45;;;;;;;1999.90;999.90;;;18.70;99.90;;;;;;4977129;28;20038;-72
2023/10/07 08:55:10;;;;;;;1999.90;999.90;;;18.60;99.90;;;;;;4971948;28;20073;-73
2023/10/07 08:57:40;;;;;;;1999.90;999.90;;;18.70;99.90;;;;;;4971825;28;20522;-73
2023/10/07 09:00:14;;;;;;;1999.90;999.90;;;18.60;99.90;;;;;;4976685;28;20118;-72
2023/10/07 09:02:40;;;;;;;1999.90;999.90;;;18.60;99.90;;;;;;4968411;28;20042;-72
2023/10/07 09:05:09;;;;;;;1999.90;999.90;;;18.60;99.90;;;;;;4972652;28;20042;-72
2023/10/07 09:07:36;;;;;;;1999.90;999.90;;;18.60;99.90;;;;;;4972219;28;20046;-73
2023/10/07 09:10:07;;;;;;;1999.90;999.90;;;18.60;99.90;;;;;;5045400;28;20057;-73
2023/10/07 09:12:39;;;;;;;1999.90;999.90;;;18.70;99.90;;;;;;5010617;28;20053;-73
2023/10/07 09:15:12;;;;;;;1999.90;999.90;;;18.70;99.90;;;;;;4973598;28;20448;-73
2023/10/07 09:17:41;;;;;;;1999.90;999.90;;;18.70;99.90;;;;;;4978263;28;20588;-72
2023/10/07 09:20:13;;;;;;;1999.90;999.90;;;18.70;99.90;;;;;;4978376;28;20042;-72
2023/10/07 09:22:45;;;;;;;1999.90;999.90;;;18.80;99.90;;;;;;4979875;28;20042;-72
2023/10/07 09:25:17;;;;;;;1999.90;999.90;;;18.70;99.90;;;;;;4973490;28;20050;-73
2023/10/07 09:27:54;;;;;;;1999.90;999.90;;;18.80;99.90;;;;;;4977410;28;20046;-73
2023/10/07 09:33:18;;;;;;;1999.90;999.90;;;18.80;99.90;;;;;;4977473;28;20391;-73
2023/10/07 09:36:33;;;;;;;1999.90;999.90;;;18.80;99.90;;;;;;4979403;28;20047;-73
2023/10/07 09:38:35;;;;;;;1999.90;999.90;;;18.80;99.90;;;;;;4988580;28;20051;-73
2023/10/07 09:41:23;;;;;;;1999.90;999.90;;;18.80;99.90;;;;;;4979302;28;20503;-71
2023/10/07 09:43:56;;;;;;;1999.90;999.90;;;18.80;99.90;;;;;;4971921;28;20546;-73
2023/10/07 09:46:25;;;;;;;1999.90;999.90;;;18.90;99.90;;;;;;4999601;28;20044;-73
2023/10/07 09:48:51;;;;;;;1999.90;999.90;;;18.90;99.90;;;;;;4994231;28;20085;-72
2023/10/07 09:51:34;;;;;;;1999.90;999.90;;;18.90;99.90;;;;;;4985604;28;20038;-72
2023/10/07 09:54:15;;;;;;;1999.90;999.90;;;18.90;99.90;;;;;;4983032;28;20043;-74
2023/10/07 09:57:06;;;;;;;1999.90;999.90;;;18.90;99.90;;;;;;4976889;28;20546;-72
2023/10/07 09:59:43;;;;;;;1999.90;999.90;;;18.90;99.90;;;;;;4983549;28;20053;-72
2023/10/07 10:03:03;;;;;;;1999.90;999.90;;;18.90;99.90;;;;;;4957635;28;20085;-73
2023/10/07 10:05:37;;;;;;;1999.90;999.90;;;19.00;99.90;;;;;;4974417;28;20125;-72
2023/10/07 10:08:27;;;;;;;1999.90;999.90;;;19.00;99.90;;;;;;4977067;28;20057;-73
2023/10/07 10:10:57;;;;;;;1999.90;999.90;;;19.00;99.90;;;;;;4975904;28;20053;-73
2023/10/07 10:16:18;;;;;;;1999.90;999.90;;;19.10;99.90;;;;;;4979799;28;20051;-73
2023/10/07 10:18:51;;;;;;;1999.90;999.90;;;19.10;99.90;;;;;;4976582;28;20085;-73
2023/10/07 10:21:22;;;;;;;1999.90;999.90;;;19.10;99.90;;;;;;4980425;28;20043;-73
2023/10/07 10:23:51;;;;;;;1999.90;999.90;;;19.20;99.90;;;;;;4983884;28;20118;-72
2023/10/07 10:26:22;;;;;;;1999.90;999.90;;;19.20;99.90;;;;;;4970463;28;20069;-73
2023/10/07 10:29:04;;;;;;;1999.90;999.90;;;19.10;99.90;;;;;;4970903;28;20047;-72
2023/10/07 10:31:40;;;;;;;1999.90;999.90;;;19.10;99.90;;;;;;4974069;28;20125;-73
2023/10/07 10:34:08;;;;;;;1999.90;999.90;;;19.20;99.90;;;;;;4971069;28;20042;-73
2023/10/07 10:36:43;;;;;;;1999.90;999.90;;;19.20;99.90;;;;;;4970171;28;20233;-72
2023/10/07 10:39:22;;;;;;;1999.90;999.90;;;19.20;99.90;;;;;;4965445;28;20116;-73
2023/10/07 10:41:48;;;;;;;1999.90;999.90;;;19.40;99.90;;;;;;4970808;28;20560;-74
2023/10/07 10:44:17;;;;;;;1999.90;999.90;;;19.50;99.90;;;;;;4979320;28;20074;-73
2023/10/07 10:46:45;;;;;;;1999.90;999.90;;;19.60;99.90;;;;;;4973197;28;20411;-72
2023/10/07 10:49:12;;;;;;;1999.90;999.90;;;19.70;99.90;;;;;;4966677;28;20062;-73
2023/10/07 10:51:50;;;;;;;1999.90;999.90;;;19.90;99.90;;;;;;4979516;28;20049;-74
2023/10/07 10:54:19;;;;;;;1999.90;999.90;;;19.90;99.90;;;;;;4971620;28;20054;-73
2023/10/07 10:56:57;;;;;;;1999.90;999.90;;;20.00;99.90;;;;;;4968646;28;20050;-73
2023/10/07 10:59:47;;;;;;;1999.90;999.90;;;20.00;99.90;;;;;;4999075;28;20058;-74
2023/10/07 11:02:17;;;;;;;1999.90;999.90;;;20.00;99.90;;;;;;4976558;28;20561;-72
2023/10/07 11:04:46;;;;;;;1999.90;999.90;;;19.80;99.90;;;;;;4975092;28;20491;-73
2023/10/07 11:07:14;;;;;;;1999.90;999.90;;;19.70;99.90;;;;;;4968057;28;20046;-73
2023/10/07 11:09:41;;;;;;;1999.90;999.90;;;19.70;99.90;;;;;;4978424;28;20114;-73
2023/10/07 11:12:12;;;;;;;1999.90;999.90;;;19.60;99.90;;;;;;4985094;28;20050;-73
2023/10/07 11:14:40;;;;;;;1999.90;999.90;;;19.50;99.90;;;;;;4977113;28;20054;-73
2023/10/07 11:17:09;;;;;;;1999.90;999.90;;;19.50;99.90;;;;;;4983794;28;20070;-73
2023/10/07 11:19:47;;;;;;;1999.90;999.90;;;19.40;99.90;;;;;;4986709;28;20501;-72
2023/10/07 11:22:22;;;;;;;1999.90;999.90;;;19.40;99.90;;;;;;4977353;28;20117;-72
2023/10/07 11:24:50;;;;;;;1999.90;999.90;;;19.30;99.90;;;;;;4979452;28;20046;-72
2023/10/07 11:27:23;;;;;;;1999.90;999.90;;;19.30;99.90;;;;;;4974201;28;20034;-73
2023/10/07 11:29:58;;;;;;;1999.90;999.90;;;19.30;99.90;;;;;;4980892;28;20050;-73
2023/10/07 11:32:33;;;;;;;1999.90;999.90;;;19.30;99.90;;;;;;4966994;28;20458;-73
2023/10/07 11:34:59;;;;;;;1999.90;999.90;;;19.30;99.90;;;;;;4969213;28;20072;-73
2023/10/07 11:37:27;;;;;;;1999.90;999.90;;;19.30;99.90;;;;;;4968977;28;20050;-73
2023/10/07 11:39:53;;;;;;;1999.90;999.90;;;19.30;99.90;;;;;;4998289;28;20137;-73
2023/10/07 11:42:21;;;;;;;1999.90;999.90;;;19.20;99.90;;;;;;4970439;28;20593;-72
2023/10/07 11:44:53;;;;;;;1999.90;999.90;;;19.30;99.90;;;;;;4977458;28;20121;-73
2023/10/07 11:47:19;;;;;;;1999.90;999.90;;;19.30;99.90;;;;;;4979274;28;20108;-73
2023/10/07 11:49:49;;;;;;;1999.90;999.90;;;19.20;99.90;;;;;;4980648;28;20533;-73
2023/10/07 11:52:19;;;;;;;1999.90;999.90;;;19.30;99.90;;;;;;4980773;28;20169;-73
2023/10/07 11:54:49;;;;;;;1999.90;999.90;;;19.40;99.90;;;;;;4982937;28;20564;-73
2023/10/07 11:57:18;;;;;;;1999.90;999.90;;;19.40;99.90;;;;;;4979872;28;20051;-73
2023/10/07 11:59:45;;;;;;;1999.90;999.90;;;19.30;99.90;;;;;;4979878;28;20047;-73
2023/10/07 12:02:11;;;;;;;1999.90;999.90;;;19.30;99.90;;;;;;4968298;28;20169;-73
2023/10/07 12:04:41;;;;;;;1999.90;999.90;;;19.20;99.90;;;;;;4983721;28;20054;-74
2023/10/07 12:07:08;;;;;;;1999.90;999.90;;;19.20;99.90;;;;;;4982401;28;20135;-72
2023/10/07 12:09:34;;;;;;;1999.90;999.90;;;19.20;99.90;;;;;;4972252;28;20565;-72
2023/10/07 12:12:02;;;;;;;1999.90;999.90;;;19.20;99.90;;;;;;4976544;28;20483;-73
2023/10/07 12:14:33;;;;;;;1999.90;999.90;;;19.30;99.90;;;;;;4982809;28;20046;-73
2023/10/07 12:16:58;;;;;;;1999.90;999.90;;;19.20;99.90;;;;;;4982427;28;20108;-72
2023/10/07 12:19:25;;;;;;;1999.90;999.90;;;19.10;99.90;;;;;;4976318;28;20474;-72
2023/10/07 12:21:52;;;;;;;1999.90;999.90;;;19.00;99.90;;;;;;4983198;28;20042;-72
2023/10/07 12:24:18;;;;;;;1999.90;999.90;;;19.00;99.90;;;;;;4981675;28;20571;-72
2023/10/07 12:26:50;;;;;;;1999.90;999.90;;;18.90;99.90;;;;;;4980759;28;20034;-73
2023/10/07 12:29:20;;;;;;;1999.90;999.90;;;18.90;99.90;;;;;;4967371;28;20050;-72
2023/10/07 12:31:47;;;;;;;1999.90;999.90;;;18.90;99.90;;;;;;4961301;28;20125;-72
2023/10/07 12:34:16;;;;;;;1999.90;999.90;;;18.90;99.90;;;;;;4967193;28;20038;-73
2023/10/07 12:36:42;;;;;;;1999.90;999.90;;;18.90;99.90;;;;;;4955830;28;20128;-71
2023/10/07 12:39:11;;;;;;;1999.90;999.90;;;18.90;99.90;;;;;;4978946;28;20092;-73
2023/10/07 12:41:41;;;;;;;1999.90;999.90;;;18.90;99.90;;;;;;4980658;28;20545;-73
2023/10/07 12:44:08;;;;;;;1999.90;999.90;;;18.90;99.90;;;;;;4946571;28;20445;-73
2023/10/07 12:46:38;;;;;;;1999.90;999.90;;;18.80;99.90;;;;;;4946962;28;20491;-72
2023/10/07 12:49:09;;;;;;;1999.90;999.90;;;18.80;99.90;;;;;;4968455;28;20100;-73
2023/10/07 12:51:43;;;;;;;1999.90;999.90;;;18.80;99.90;;;;;;4964224;28;20129;-73
2023/10/07 12:54:09;;;;;;;1999.90;999.90;;;18.80;99.90;;;;;;4965897;28;20057;-74